sensor_id;sensor_type;location;lat;lon;timestamp;P1;durP1;ratioP1;P2;durP2;ratioP2
76125;SDS011;65174;48.138;21.002;2023-04-19T00:00:23;2.47;;;1.70;;
76125;SDS011;65174;48.138;21.002;2023-04-19T00:03:26;1.50;;;1.40;;
76125;SDS011;65174;48.138;21.002;2023-04-19T00:06:31;1.38;;;1.23;;
76125;SDS011;65174;48.138;21.002;2023-04-19T00:09:33;3.25;;;1.45;;
76125;SDS011;65174;48.138;21.002;2023-04-19T00:12:36;1.33;;;1.20;;
76125;SDS011;65174;48.138;21.002;2023-04-19T00:15:38;1.95;;;1.25;;
76125;SDS011;65174;48.138;21.002;2023-04-19T00:18:40;1.42;;;0.73;;
76125;SDS011;65174;48.138;21.002;2023-04-19T00:21:43;1.77;;;1.60;;
76125;SDS011;65174;48.138;21.002;2023-04-19T00:24:45;3.33;;;1.23;;
76125;SDS011;65174;48.138;21.002;2023-04-19T00:27:49;3.60;;;2.17;;
76125;SDS011;65174;48.138;21.002;2023-04-19T00:30:51;1.98;;;1.55;;
76125;SDS011;65174;48.138;21.002;2023-04-19T00:33:53;2.53;;;1.95;;
76125;SDS011;65174;48.138;21.002;2023-04-19T00:37:05;4.38;;;2.13;;
76125;SDS011;65174;48.138;21.002;2023-04-19T00:40:07;1.50;;;1.25;;
76125;SDS011;65174;48.138;21.002;2023-04-19T00:43:10;1.43;;;1.20;;
76125;SDS011;65174;48.138;21.002;2023-04-19T00:46:14;1.60;;;1.20;;
76125;SDS011;65174;48.138;21.002;2023-04-19T00:49:17;2.28;;;1.77;;
76125;SDS011;65174;48.138;21.002;2023-04-19T00:52:19;1.75;;;1.55;;
76125;SDS011;65174;48.138;21.002;2023-04-19T00:55:22;2.55;;;1.65;;
76125;SDS011;65174;48.138;21.002;2023-04-19T00:58:26;3.27;;;1.40;;
76125;SDS011;65174;48.138;21.002;2023-04-19T01:01:30;1.35;;;1.25;;
76125;SDS011;65174;48.138;21.002;2023-04-19T01:04:33;1.65;;;1.45;;
76125;SDS011;65174;48.138;21.002;2023-04-19T01:07:35;2.55;;;2.05;;
76125;SDS011;65174;48.138;21.002;2023-04-19T01:10:37;2.65;;;2.22;;
76125;SDS011;65174;48.138;21.002;2023-04-19T01:13:39;3.33;;;2.50;;
76125;SDS011;65174;48.138;21.002;2023-04-19T01:16:43;1.77;;;1.42;;
76125;SDS011;65174;48.138;21.002;2023-04-19T01:19:46;2.72;;;1.90;;
76125;SDS011;65174;48.138;21.002;2023-04-19T01:22:48;2.20;;;2.03;;
76125;SDS011;65174;48.138;21.002;2023-04-19T01:25:50;2.40;;;1.42;;
76125;SDS011;65174;48.138;21.002;2023-04-19T01:28:55;3.63;;;2.03;;
76125;SDS011;65174;48.138;21.002;2023-04-19T01:31:57;1.85;;;1.30;;
76125;SDS011;65174;48.138;21.002;2023-04-19T01:35:00;2.22;;;1.70;;
76125;SDS011;65174;48.138;21.002;2023-04-19T01:38:04;2.38;;;2.00;;
76125;SDS011;65174;48.138;21.002;2023-04-19T01:41:06;1.90;;;1.77;;
76125;SDS011;65174;48.138;21.002;2023-04-19T01:44:08;2.33;;;2.13;;
76125;SDS011;65174;48.138;21.002;2023-04-19T01:47:11;1.90;;;1.45;;
76125;SDS011;65174;48.138;21.002;2023-04-19T01:50:13;3.70;;;2.33;;
76125;SDS011;65174;48.138;21.002;2023-04-19T01:53:15;2.60;;;2.03;;
76125;SDS011;65174;48.138;21.002;2023-04-19T01:56:18;2.55;;;1.83;;
76125;SDS011;65174;48.138;21.002;2023-04-19T01:59:21;4.30;;;1.97;;
76125;SDS011;65174;48.138;21.002;2023-04-19T02:02:23;3.00;;;1.95;;
76125;SDS011;65174;48.138;21.002;2023-04-19T02:05:25;5.00;;;1.80;;
76125;SDS011;65174;48.138;21.002;2023-04-19T02:08:27;3.80;;;1.80;;
76125;SDS011;65174;48.138;21.002;2023-04-19T02:11:29;2.03;;;1.55;;
76125;SDS011;65174;48.138;21.002;2023-04-19T02:14:31;3.37;;;2.23;;
76125;SDS011;65174;48.138;21.002;2023-04-19T02:17:34;1.90;;;1.67;;
76125;SDS011;65174;48.138;21.002;2023-04-19T02:20:36;6.80;;;2.45;;
76125;SDS011;65174;48.138;21.002;2023-04-19T02:23:38;1.98;;;1.58;;
76125;SDS011;65174;48.138;21.002;2023-04-19T02:26:40;2.70;;;1.95;;
76125;SDS011;65174;48.138;21.002;2023-04-19T02:29:43;3.50;;;2.47;;
76125;SDS011;65174;48.138;21.002;2023-04-19T02:32:46;4.32;;;2.63;;
76125;SDS011;65174;48.138;21.002;2023-04-19T02:35:49;2.58;;;2.03;;
76125;SDS011;65174;48.138;21.002;2023-04-19T02:38:51;2.63;;;1.95;;
76125;SDS011;65174;48.138;21.002;2023-04-19T02:41:54;2.90;;;2.35;;
76125;SDS011;65174;48.138;21.002;2023-04-19T02:44:56;2.77;;;1.40;;
76125;SDS011;65174;48.138;21.002;2023-04-19T02:47:58;3.38;;;2.00;;
76125;SDS011;65174;48.138;21.002;2023-04-19T02:51:00;3.13;;;1.90;;
76125;SDS011;65174;48.138;21.002;2023-04-19T02:54:02;3.85;;;2.20;;
76125;SDS011;65174;48.138;21.002;2023-04-19T02:57:04;4.30;;;2.50;;
76125;SDS011;65174;48.138;21.002;2023-04-19T03:00:07;3.50;;;2.57;;
76125;SDS011;65174;48.138;21.002;2023-04-19T03:03:11;2.95;;;2.67;;
76125;SDS011;65174;48.138;21.002;2023-04-19T03:06:13;5.00;;;1.88;;
76125;SDS011;65174;48.138;21.002;2023-04-19T03:09:15;5.38;;;2.78;;
76125;SDS011;65174;48.138;21.002;2023-04-19T03:12:18;2.78;;;2.55;;
76125;SDS011;65174;48.138;21.002;2023-04-19T03:15:25;3.53;;;2.70;;
76125;SDS011;65174;48.138;21.002;2023-04-19T03:18:28;3.22;;;2.35;;
76125;SDS011;65174;48.138;21.002;2023-04-19T03:21:31;4.55;;;2.60;;
76125;SDS011;65174;48.138;21.002;2023-04-19T03:24:34;2.92;;;2.17;;
76125;SDS011;65174;48.138;21.002;2023-04-19T03:27:51;4.70;;;3.45;;
76125;SDS011;65174;48.138;21.002;2023-04-19T03:31:07;7.60;;;3.17;;
76125;SDS011;65174;48.138;21.002;2023-04-19T03:34:09;4.95;;;3.25;;
76125;SDS011;65174;48.138;21.002;2023-04-19T03:37:15;5.88;;;3.03;;
76125;SDS011;65174;48.138;21.002;2023-04-19T03:40:17;5.78;;;3.30;;
76125;SDS011;65174;48.138;21.002;2023-04-19T03:43:19;3.30;;;2.72;;
76125;SDS011;65174;48.138;21.002;2023-04-19T03:46:21;3.07;;;2.47;;
76125;SDS011;65174;48.138;21.002;2023-04-19T03:49:23;2.97;;;2.03;;
76125;SDS011;65174;48.138;21.002;2023-04-19T03:52:35;4.65;;;3.60;;
76125;SDS011;65174;48.138;21.002;2023-04-19T03:55:37;2.65;;;2.45;;
76125;SDS011;65174;48.138;21.002;2023-04-19T03:58:40;3.20;;;2.80;;
76125;SDS011;65174;48.138;21.002;2023-04-19T04:01:44;4.23;;;3.07;;
76125;SDS011;65174;48.138;21.002;2023-04-19T04:04:52;7.13;;;2.95;;
76125;SDS011;65174;48.138;21.002;2023-04-19T04:07:58;3.60;;;3.30;;
76125;SDS011;65174;48.138;21.002;2023-04-19T04:11:00;3.30;;;2.72;;
76125;SDS011;65174;48.138;21.002;2023-04-19T04:14:02;6.57;;;2.60;;
76125;SDS011;65174;48.138;21.002;2023-04-19T04:17:07;2.93;;;2.57;;
76125;SDS011;65174;48.138;21.002;2023-04-19T04:20:10;2.70;;;2.08;;
76125;SDS011;65174;48.138;21.002;2023-04-19T04:23:14;5.72;;;3.13;;
76125;SDS011;65174;48.138;21.002;2023-04-19T04:26:22;6.40;;;2.80;;
76125;SDS011;65174;48.138;21.002;2023-04-19T04:29:44;4.43;;;2.72;;
76125;SDS011;65174;48.138;21.002;2023-04-19T04:32:46;5.13;;;3.00;;
76125;SDS011;65174;48.138;21.002;2023-04-19T04:35:52;4.45;;;3.25;;
76125;SDS011;65174;48.138;21.002;2023-04-19T04:38:57;2.65;;;2.35;;
76125;SDS011;65174;48.138;21.002;2023-04-19T04:42:03;5.05;;;3.17;;
76125;SDS011;65174;48.138;21.002;2023-04-19T04:45:09;4.63;;;3.53;;
76125;SDS011;65174;48.138;21.002;2023-04-19T04:48:14;4.70;;;2.70;;
76125;SDS011;65174;48.138;21.002;2023-04-19T04:51:16;4.28;;;3.15;;
76125;SDS011;65174;48.138;21.002;2023-04-19T04:54:21;3.80;;;2.55;;
76125;SDS011;65174;48.138;21.002;2023-04-19T04:57:23;5.05;;;3.42;;
76125;SDS011;65174;48.138;21.002;2023-04-19T05:00:25;2.92;;;2.55;;
76125;SDS011;65174;48.138;21.002;2023-04-19T05:03:39;3.57;;;3.23;;
76125;SDS011;65174;48.138;21.002;2023-04-19T05:06:46;3.83;;;2.50;;
76125;SDS011;65174;48.138;21.002;2023-04-19T05:09:54;1.80;;;1.65;;
76125;SDS011;65174;48.138;21.002;2023-04-19T05:13:02;6.70;;;2.60;;
76125;SDS011;65174;48.138;21.002;2023-04-19T05:16:05;5.75;;;4.15;;
76125;SDS011;65174;48.138;21.002;2023-04-19T05:19:07;4.90;;;3.03;;
76125;SDS011;65174;48.138;21.002;2023-04-19T05:22:15;8.02;;;3.75;;
76125;SDS011;65174;48.138;21.002;2023-04-19T05:25:17;4.85;;;3.38;;
76125;SDS011;65174;48.138;21.002;2023-04-19T05:28:19;5.20;;;3.03;;
76125;SDS011;65174;48.138;21.002;2023-04-19T05:31:39;3.42;;;2.53;;
76125;SDS011;65174;48.138;21.002;2023-04-19T05:34:55;3.80;;;3.17;;
76125;SDS011;65174;48.138;21.002;2023-04-19T05:37:57;3.67;;;2.78;;
76125;SDS011;65174;48.138;21.002;2023-04-19T05:40:59;6.45;;;5.75;;
76125;SDS011;65174;48.138;21.002;2023-04-19T05:44:01;4.85;;;3.17;;
76125;SDS011;65174;48.138;21.002;2023-04-19T05:47:03;4.72;;;3.42;;
76125;SDS011;65174;48.138;21.002;2023-04-19T05:50:38;4.63;;;3.77;;
76125;SDS011;65174;48.138;21.002;2023-04-19T05:54:07;5.45;;;3.47;;
76125;SDS011;65174;48.138;21.002;2023-04-19T05:57:14;7.00;;;3.25;;
76125;SDS011;65174;48.138;21.002;2023-04-19T06:00:16;5.70;;;3.78;;
76125;SDS011;65174;48.138;21.002;2023-04-19T06:03:30;6.38;;;4.63;;
76125;SDS011;65174;48.138;21.002;2023-04-19T06:06:35;4.57;;;3.80;;
76125;SDS011;65174;48.138;21.002;2023-04-19T06:09:39;5.60;;;3.03;;
76125;SDS011;65174;48.138;21.002;2023-04-19T06:12:41;4.28;;;3.42;;
76125;SDS011;65174;48.138;21.002;2023-04-19T06:15:43;5.35;;;4.07;;
76125;SDS011;65174;48.138;21.002;2023-04-19T06:18:46;6.15;;;4.20;;
76125;SDS011;65174;48.138;21.002;2023-04-19T06:21:48;3.37;;;2.73;;
76125;SDS011;65174;48.138;21.002;2023-04-19T06:24:50;5.50;;;4.05;;
76125;SDS011;65174;48.138;21.002;2023-04-19T06:27:52;5.10;;;3.88;;
76125;SDS011;65174;48.138;21.002;2023-04-19T06:30:54;6.68;;;3.88;;
76125;SDS011;65174;48.138;21.002;2023-04-19T06:33:56;4.22;;;2.92;;
76125;SDS011;65174;48.138;21.002;2023-04-19T06:36:58;7.67;;;4.33;;
76125;SDS011;65174;48.138;21.002;2023-04-19T06:56:08;6.37;;;4.77;;
76125;SDS011;65174;48.138;21.002;2023-04-19T06:59:14;4.45;;;3.63;;
76125;SDS011;65174;48.138;21.002;2023-04-19T07:02:19;9.15;;;3.40;;
76125;SDS011;65174;48.138;21.002;2023-04-19T07:05:22;4.43;;;3.47;;
76125;SDS011;65174;48.138;21.002;2023-04-19T07:08:44;5.03;;;3.50;;
76125;SDS011;65174;48.138;21.002;2023-04-19T07:11:51;3.70;;;3.30;;
76125;SDS011;65174;48.138;21.002;2023-04-19T07:14:53;4.15;;;3.72;;
76125;SDS011;65174;48.138;21.002;2023-04-19T07:17:57;3.97;;;2.92;;
76125;SDS011;65174;48.138;21.002;2023-04-19T07:21:00;3.65;;;3.30;;
76125;SDS011;65174;48.138;21.002;2023-04-19T07:24:02;3.92;;;3.03;;
76125;SDS011;65174;48.138;21.002;2023-04-19T07:27:04;4.50;;;3.20;;
76125;SDS011;65174;48.138;21.002;2023-04-19T07:30:06;6.32;;;3.92;;
76125;SDS011;65174;48.138;21.002;2023-04-19T07:33:09;5.57;;;3.95;;
76125;SDS011;65174;48.138;21.002;2023-04-19T07:36:11;7.15;;;4.07;;
76125;SDS011;65174;48.138;21.002;2023-04-19T07:39:13;6.60;;;2.85;;
76125;SDS011;65174;48.138;21.002;2023-04-19T07:42:15;4.70;;;3.23;;
76125;SDS011;65174;48.138;21.002;2023-04-19T07:45:17;4.82;;;4.32;;
76125;SDS011;65174;48.138;21.002;2023-04-19T07:48:20;4.10;;;3.55;;
76125;SDS011;65174;48.138;21.002;2023-04-19T07:51:22;3.83;;;2.58;;
76125;SDS011;65174;48.138;21.002;2023-04-19T07:54:25;3.42;;;2.70;;
76125;SDS011;65174;48.138;21.002;2023-04-19T07:57:27;4.80;;;3.20;;
76125;SDS011;65174;48.138;21.002;2023-04-19T08:00:29;6.20;;;3.70;;
76125;SDS011;65174;48.138;21.002;2023-04-19T08:04:30;4.53;;;3.00;;
76125;SDS011;65174;48.138;21.002;2023-04-19T08:07:33;3.55;;;2.97;;
76125;SDS011;65174;48.138;21.002;2023-04-19T08:10:35;8.95;;;3.70;;
76125;SDS011;65174;48.138;21.002;2023-04-19T08:13:37;5.73;;;3.90;;
76125;SDS011;65174;48.138;21.002;2023-04-19T08:16:41;3.45;;;3.05;;
76125;SDS011;65174;48.138;21.002;2023-04-19T08:20:03;3.38;;;2.53;;
76125;SDS011;65174;48.138;21.002;2023-04-19T08:23:07;6.55;;;3.03;;
76125;SDS011;65174;48.138;21.002;2023-04-19T08:26:24;7.35;;;4.00;;
76125;SDS011;65174;48.138;21.002;2023-04-19T08:29:27;6.57;;;4.50;;
76125;SDS011;65174;48.138;21.002;2023-04-19T08:32:29;5.65;;;3.80;;
76125;SDS011;65174;48.138;21.002;2023-04-19T08:35:33;5.72;;;3.50;;
76125;SDS011;65174;48.138;21.002;2023-04-19T08:38:36;6.13;;;3.63;;
76125;SDS011;65174;48.138;21.002;2023-04-19T08:41:40;4.65;;;3.20;;
76125;SDS011;65174;48.138;21.002;2023-04-19T08:44:42;4.10;;;3.40;;
76125;SDS011;65174;48.138;21.002;2023-04-19T08:48:07;3.13;;;2.53;;
76125;SDS011;65174;48.138;21.002;2023-04-19T08:51:12;3.67;;;2.50;;
76125;SDS011;65174;48.138;21.002;2023-04-19T08:54:18;4.82;;;3.63;;
76125;SDS011;65174;48.138;21.002;2023-04-19T08:57:20;5.03;;;3.47;;
76125;SDS011;65174;48.138;21.002;2023-04-19T09:00:22;4.57;;;3.20;;
76125;SDS011;65174;48.138;21.002;2023-04-19T09:03:24;6.07;;;3.22;;
76125;SDS011;65174;48.138;21.002;2023-04-19T09:06:27;5.75;;;3.65;;
76125;SDS011;65174;48.138;21.002;2023-04-19T09:09:30;4.22;;;2.75;;
76125;SDS011;65174;48.138;21.002;2023-04-19T09:12:35;2.10;;;1.77;;
76125;SDS011;65174;48.138;21.002;2023-04-19T09:15:39;3.77;;;2.93;;
76125;SDS011;65174;48.138;21.002;2023-04-19T09:18:52;4.68;;;2.83;;
76125;SDS011;65174;48.138;21.002;2023-04-19T09:22:12;2.85;;;2.25;;
76125;SDS011;65174;48.138;21.002;2023-04-19T09:25:23;3.88;;;2.70;;
76125;SDS011;65174;48.138;21.002;2023-04-19T09:28:59;3.22;;;2.20;;
76125;SDS011;65174;48.138;21.002;2023-04-19T09:32:05;2.73;;;2.00;;
76125;SDS011;65174;48.138;21.002;2023-04-19T09:35:07;4.03;;;2.45;;
76125;SDS011;65174;48.138;21.002;2023-04-19T09:38:10;2.40;;;1.90;;
76125;SDS011;65174;48.138;21.002;2023-04-19T09:41:15;5.30;;;2.50;;
76125;SDS011;65174;48.138;21.002;2023-04-19T09:44:18;3.00;;;2.20;;
76125;SDS011;65174;48.138;21.002;2023-04-19T09:47:27;1.83;;;1.70;;
76125;SDS011;65174;48.138;21.002;2023-04-19T09:51:38;3.67;;;2.05;;
76125;SDS011;65174;48.138;21.002;2023-04-19T09:54:42;2.78;;;1.77;;
76125;SDS011;65174;48.138;21.002;2023-04-19T09:57:45;2.33;;;1.98;;
76125;SDS011;65174;48.138;21.002;2023-04-19T10:00:47;3.25;;;2.35;;
76125;SDS011;65174;48.138;21.002;2023-04-19T10:04:02;2.20;;;1.40;;
76125;SDS011;65174;48.138;21.002;2023-04-19T10:07:24;1.77;;;1.55;;
76125;SDS011;65174;48.138;21.002;2023-04-19T10:10:31;1.38;;;1.08;;
76125;SDS011;65174;48.138;21.002;2023-04-19T10:13:43;2.58;;;1.15;;
76125;SDS011;65174;48.138;21.002;2023-04-19T10:16:47;7.13;;;1.50;;
76125;SDS011;65174;48.138;21.002;2023-04-19T10:20:00;1.50;;;1.40;;
76125;SDS011;65174;48.138;21.002;2023-04-19T10:23:07;1.92;;;1.45;;
76125;SDS011;65174;48.138;21.002;2023-04-19T10:26:10;1.60;;;1.42;;
76125;SDS011;65174;48.138;21.002;2023-04-19T10:29:12;0.77;;;0.75;;
76125;SDS011;65174;48.138;21.002;2023-04-19T10:32:15;1.58;;;1.10;;
76125;SDS011;65174;48.138;21.002;2023-04-19T10:35:21;3.20;;;1.37;;
76125;SDS011;65174;48.138;21.002;2023-04-19T10:38:35;1.67;;;1.40;;
76125;SDS011;65174;48.138;21.002;2023-04-19T10:41:55;1.70;;;1.58;;
76125;SDS011;65174;48.138;21.002;2023-04-19T10:48:33;2.40;;;1.10;;
76125;SDS011;65174;48.138;21.002;2023-04-19T10:51:38;2.10;;;1.00;;
76125;SDS011;65174;48.138;21.002;2023-04-19T10:54:44;1.70;;;1.25;;
76125;SDS011;65174;48.138;21.002;2023-04-19T10:58:00;0.85;;;0.82;;
76125;SDS011;65174;48.138;21.002;2023-04-19T11:07:52;1.90;;;1.30;;
76125;SDS011;65174;48.138;21.002;2023-04-19T11:10:55;1.38;;;1.02;;
76125;SDS011;65174;48.138;21.002;2023-04-19T11:13:58;1.77;;;1.10;;
76125;SDS011;65174;48.138;21.002;2023-04-19T11:17:11;1.88;;;1.52;;
76125;SDS011;65174;48.138;21.002;2023-04-19T11:20:17;0.98;;;0.88;;
76125;SDS011;65174;48.138;21.002;2023-04-19T11:23:24;0.97;;;0.93;;
76125;SDS011;65174;48.138;21.002;2023-04-19T11:26:26;1.23;;;1.13;;
76125;SDS011;65174;48.138;21.002;2023-04-19T11:29:28;1.17;;;1.00;;
76125;SDS011;65174;48.138;21.002;2023-04-19T11:32:30;2.17;;;1.38;;
76125;SDS011;65174;48.138;21.002;2023-04-19T11:35:33;2.03;;;1.60;;
76125;SDS011;65174;48.138;21.002;2023-04-19T11:38:36;2.03;;;1.60;;
76125;SDS011;65174;48.138;21.002;2023-04-19T11:41:38;1.10;;;1.00;;
76125;SDS011;65174;48.138;21.002;2023-04-19T11:44:40;1.50;;;1.30;;
76125;SDS011;65174;48.138;21.002;2023-04-19T11:47:49;1.20;;;1.10;;
76125;SDS011;65174;48.138;21.002;2023-04-19T11:50:52;1.65;;;0.77;;
76125;SDS011;65174;48.138;21.002;2023-04-19T11:53:59;1.60;;;1.40;;
76125;SDS011;65174;48.138;21.002;2023-04-19T11:57:02;1.73;;;1.05;;
76125;SDS011;65174;48.138;21.002;2023-04-19T12:00:06;2.00;;;1.52;;
76125;SDS011;65174;48.138;21.002;2023-04-19T12:03:12;1.80;;;1.35;;
76125;SDS011;65174;48.138;21.002;2023-04-19T12:06:16;1.20;;;1.10;;
76125;SDS011;65174;48.138;21.002;2023-04-19T12:09:19;1.53;;;1.37;;
76125;SDS011;65174;48.138;21.002;2023-04-19T12:12:30;1.27;;;0.90;;
76125;SDS011;65174;48.138;21.002;2023-04-19T12:15:42;1.83;;;1.25;;
76125;SDS011;65174;48.138;21.002;2023-04-19T12:18:45;1.98;;;1.25;;
76125;SDS011;65174;48.138;21.002;2023-04-19T12:21:51;1.40;;;1.20;;
76125;SDS011;65174;48.138;21.002;2023-04-19T12:24:53;2.97;;;1.63;;
76125;SDS011;65174;48.138;21.002;2023-04-19T12:27:56;2.65;;;1.70;;
76125;SDS011;65174;48.138;21.002;2023-04-19T12:30:59;1.48;;;1.02;;
76125;SDS011;65174;48.138;21.002;2023-04-19T12:34:01;1.05;;;0.95;;
76125;SDS011;65174;48.138;21.002;2023-04-19T12:37:03;1.73;;;1.23;;
76125;SDS011;65174;48.138;21.002;2023-04-19T12:40:05;1.50;;;1.30;;
76125;SDS011;65174;48.138;21.002;2023-04-19T12:43:08;2.15;;;1.60;;
76125;SDS011;65174;48.138;21.002;2023-04-19T12:46:10;1.50;;;1.00;;
76125;SDS011;65174;48.138;21.002;2023-04-19T12:49:12;1.50;;;1.17;;
76125;SDS011;65174;48.138;21.002;2023-04-19T12:52:14;1.60;;;1.42;;
76125;SDS011;65174;48.138;21.002;2023-04-19T12:55:16;1.33;;;1.17;;
76125;SDS011;65174;48.138;21.002;2023-04-19T12:58:18;1.45;;;1.30;;
76125;SDS011;65174;48.138;21.002;2023-04-19T13:01:22;1.70;;;1.45;;
76125;SDS011;65174;48.138;21.002;2023-04-19T13:04:24;3.30;;;1.40;;
76125;SDS011;65174;48.138;21.002;2023-04-19T13:07:26;1.63;;;1.40;;
76125;SDS011;65174;48.138;21.002;2023-04-19T13:10:29;1.50;;;1.03;;
76125;SDS011;65174;48.138;21.002;2023-04-19T13:13:31;1.90;;;1.13;;
76125;SDS011;65174;48.138;21.002;2023-04-19T13:16:33;2.22;;;1.27;;
76125;SDS011;65174;48.138;21.002;2023-04-19T13:19:35;1.20;;;0.95;;
76125;SDS011;65174;48.138;21.002;2023-04-19T13:22:37;2.05;;;1.52;;
76125;SDS011;65174;48.138;21.002;2023-04-19T13:25:39;6.93;;;1.40;;
76125;SDS011;65174;48.138;21.002;2023-04-19T13:28:41;1.75;;;1.42;;
76125;SDS011;65174;48.138;21.002;2023-04-19T13:31:43;2.67;;;2.47;;
76125;SDS011;65174;48.138;21.002;2023-04-19T13:35:45;1.13;;;0.88;;
76125;SDS011;65174;48.138;21.002;2023-04-19T13:38:47;1.40;;;1.27;;
76125;SDS011;65174;48.138;21.002;2023-04-19T13:41:49;1.57;;;1.13;;
76125;SDS011;65174;48.138;21.002;2023-04-19T13:44:51;1.77;;;1.13;;
76125;SDS011;65174;48.138;21.002;2023-04-19T13:48:00;1.10;;;0.93;;
76125;SDS011;65174;48.138;21.002;2023-04-19T13:51:02;3.28;;;1.58;;
76125;SDS011;65174;48.138;21.002;2023-04-19T13:54:04;1.75;;;1.38;;
76125;SDS011;65174;48.138;21.002;2023-04-19T13:57:06;1.70;;;1.60;;
76125;SDS011;65174;48.138;21.002;2023-04-19T14:00:08;1.13;;;0.90;;
76125;SDS011;65174;48.138;21.002;2023-04-19T14:03:11;1.50;;;1.40;;
76125;SDS011;65174;48.138;21.002;2023-04-19T14:06:13;1.45;;;1.20;;
76125;SDS011;65174;48.138;21.002;2023-04-19T14:09:15;1.45;;;1.23;;
76125;SDS011;65174;48.138;21.002;2023-04-19T14:12:18;1.37;;;1.07;;
76125;SDS011;65174;48.138;21.002;2023-04-19T14:15:20;2.53;;;1.38;;
76125;SDS011;65174;48.138;21.002;2023-04-19T14:18:23;1.67;;;1.17;;
76125;SDS011;65174;48.138;21.002;2023-04-19T14:21:26;2.72;;;1.23;;
76125;SDS011;65174;48.138;21.002;2023-04-19T14:24:32;3.50;;;1.33;;
76125;SDS011;65174;48.138;21.002;2023-04-19T14:27:34;1.83;;;1.13;;
76125;SDS011;65174;48.138;21.002;2023-04-19T14:30:36;1.73;;;1.00;;
76125;SDS011;65174;48.138;21.002;2023-04-19T14:33:38;3.95;;;1.08;;
76125;SDS011;65174;48.138;21.002;2023-04-19T14:36:40;1.00;;;0.90;;
76125;SDS011;65174;48.138;21.002;2023-04-19T14:39:43;1.63;;;1.52;;
76125;SDS011;65174;48.138;21.002;2023-04-19T14:42:46;1.20;;;1.10;;
76125;SDS011;65174;48.138;21.002;2023-04-19T14:45:48;1.35;;;1.20;;
76125;SDS011;65174;48.138;21.002;2023-04-19T14:48:50;2.80;;;1.55;;
76125;SDS011;65174;48.138;21.002;2023-04-19T14:51:52;1.65;;;1.10;;
76125;SDS011;65174;48.138;21.002;2023-04-19T14:54:55;2.53;;;1.25;;
76125;SDS011;65174;48.138;21.002;2023-04-19T14:57:58;1.13;;;1.03;;
76125;SDS011;65174;48.138;21.002;2023-04-19T15:01:08;1.77;;;1.20;;
76125;SDS011;65174;48.138;21.002;2023-04-19T15:04:11;1.17;;;1.00;;
76125;SDS011;65174;48.138;21.002;2023-04-19T15:07:15;1.20;;;1.10;;
76125;SDS011;65174;48.138;21.002;2023-04-19T15:10:17;1.10;;;1.00;;
76125;SDS011;65174;48.138;21.002;2023-04-19T15:13:19;1.50;;;1.00;;
76125;SDS011;65174;48.138;21.002;2023-04-19T15:16:21;1.15;;;1.05;;
76125;SDS011;65174;48.138;21.002;2023-04-19T15:19:23;1.52;;;1.30;;
76125;SDS011;65174;48.138;21.002;2023-04-19T15:22:25;2.03;;;1.08;;
76125;SDS011;65174;48.138;21.002;2023-04-19T15:25:27;1.42;;;1.10;;
76125;SDS011;65174;48.138;21.002;2023-04-19T15:28:29;1.60;;;1.40;;
76125;SDS011;65174;48.138;21.002;2023-04-19T15:31:35;2.03;;;1.20;;
76125;SDS011;65174;48.138;21.002;2023-04-19T15:34:37;2.22;;;1.10;;
76125;SDS011;65174;48.138;21.002;2023-04-19T15:37:39;1.30;;;1.20;;
76125;SDS011;65174;48.138;21.002;2023-04-19T15:40:42;1.75;;;1.17;;
76125;SDS011;65174;48.138;21.002;2023-04-19T15:43:44;1.30;;;1.07;;
76125;SDS011;65174;48.138;21.002;2023-04-19T15:46:46;1.60;;;1.17;;
76125;SDS011;65174;48.138;21.002;2023-04-19T15:49:48;1.38;;;1.27;;
76125;SDS011;65174;48.138;21.002;2023-04-19T15:52:51;1.73;;;1.40;;
76125;SDS011;65174;48.138;21.002;2023-04-19T15:55:53;1.95;;;1.10;;
76125;SDS011;65174;48.138;21.002;2023-04-19T15:58:56;1.97;;;1.17;;
76125;SDS011;65174;48.138;21.002;2023-04-19T16:01:58;2.17;;;1.65;;
76125;SDS011;65174;48.138;21.002;2023-04-19T16:05:01;2.58;;;1.67;;
76125;SDS011;65174;48.138;21.002;2023-04-19T16:08:03;2.40;;;1.77;;
76125;SDS011;65174;48.138;21.002;2023-04-19T16:11:08;2.70;;;1.55;;
76125;SDS011;65174;48.138;21.002;2023-04-19T16:14:34;1.43;;;1.33;;
76125;SDS011;65174;48.138;21.002;2023-04-19T16:17:36;2.33;;;1.63;;
76125;SDS011;65174;48.138;21.002;2023-04-19T16:20:38;1.48;;;1.10;;
76125;SDS011;65174;48.138;21.002;2023-04-19T16:23:41;1.30;;;1.13;;
76125;SDS011;65174;48.138;21.002;2023-04-19T16:26:43;4.10;;;1.13;;
76125;SDS011;65174;48.138;21.002;2023-04-19T16:29:45;1.67;;;1.17;;
76125;SDS011;65174;48.138;21.002;2023-04-19T16:32:47;1.50;;;1.35;;
76125;SDS011;65174;48.138;21.002;2023-04-19T16:35:50;2.13;;;1.40;;
76125;SDS011;65174;48.138;21.002;2023-04-19T16:38:51;1.50;;;1.30;;
76125;SDS011;65174;48.138;21.002;2023-04-19T16:41:53;1.65;;;1.17;;
76125;SDS011;65174;48.138;21.002;2023-04-19T16:44:55;2.70;;;1.40;;
76125;SDS011;65174;48.138;21.002;2023-04-19T16:47:57;2.40;;;1.52;;
76125;SDS011;65174;48.138;21.002;2023-04-19T16:51:00;1.38;;;1.20;;
76125;SDS011;65174;48.138;21.002;2023-04-19T16:54:02;1.67;;;1.10;;
76125;SDS011;65174;48.138;21.002;2023-04-19T16:57:04;1.48;;;1.20;;
76125;SDS011;65174;48.138;21.002;2023-04-19T17:00:06;1.17;;;0.90;;
76125;SDS011;65174;48.138;21.002;2023-04-19T17:03:10;2.33;;;1.10;;
76125;SDS011;65174;48.138;21.002;2023-04-19T17:06:12;1.73;;;1.27;;
76125;SDS011;65174;48.138;21.002;2023-04-19T17:09:14;2.88;;;1.50;;
76125;SDS011;65174;48.138;21.002;2023-04-19T17:12:17;1.63;;;1.23;;
76125;SDS011;65174;48.138;21.002;2023-04-19T17:15:19;1.00;;;0.90;;
76125;SDS011;65174;48.138;21.002;2023-04-19T17:18:22;2.97;;;1.08;;
76125;SDS011;65174;48.138;21.002;2023-04-19T17:21:24;1.48;;;1.38;;
76125;SDS011;65174;48.138;21.002;2023-04-19T17:24:26;1.98;;;1.35;;
76125;SDS011;65174;48.138;21.002;2023-04-19T17:27:28;4.15;;;1.25;;
76125;SDS011;65174;48.138;21.002;2023-04-19T17:30:30;2.80;;;1.23;;
76125;SDS011;65174;48.138;21.002;2023-04-19T17:33:33;1.25;;;1.15;;
76125;SDS011;65174;48.138;21.002;2023-04-19T17:36:35;1.35;;;0.85;;
76125;SDS011;65174;48.138;21.002;2023-04-19T17:39:37;2.05;;;1.40;;
76125;SDS011;65174;48.138;21.002;2023-04-19T17:42:39;2.67;;;1.48;;
76125;SDS011;65174;48.138;21.002;2023-04-19T17:45:42;2.13;;;1.53;;
76125;SDS011;65174;48.138;21.002;2023-04-19T17:48:44;1.52;;;1.42;;
76125;SDS011;65174;48.138;21.002;2023-04-19T17:51:47;0.80;;;0.80;;
76125;SDS011;65174;48.138;21.002;2023-04-19T17:54:49;2.95;;;1.55;;
76125;SDS011;65174;48.138;21.002;2023-04-19T17:57:52;1.38;;;1.15;;
76125;SDS011;65174;48.138;21.002;2023-04-19T18:00:54;2.27;;;0.73;;
76125;SDS011;65174;48.138;21.002;2023-04-19T18:03:57;1.23;;;0.80;;
76125;SDS011;65174;48.138;21.002;2023-04-19T18:06:59;1.40;;;1.25;;
76125;SDS011;65174;48.138;21.002;2023-04-19T18:10:02;1.98;;;1.20;;
76125;SDS011;65174;48.138;21.002;2023-04-19T18:13:04;0.80;;;0.80;;
76125;SDS011;65174;48.138;21.002;2023-04-19T18:16:07;1.77;;;1.30;;
76125;SDS011;65174;48.138;21.002;2023-04-19T18:19:09;1.20;;;1.10;;
76125;SDS011;65174;48.138;21.002;2023-04-19T18:22:11;1.02;;;0.90;;
76125;SDS011;65174;48.138;21.002;2023-04-19T18:25:13;2.10;;;1.50;;
76125;SDS011;65174;48.138;21.002;2023-04-19T18:28:15;3.38;;;1.55;;
76125;SDS011;65174;48.138;21.002;2023-04-19T18:31:17;1.63;;;1.30;;
76125;SDS011;65174;48.138;21.002;2023-04-19T18:34:20;1.10;;;1.00;;
76125;SDS011;65174;48.138;21.002;2023-04-19T18:37:22;1.58;;;1.20;;
76125;SDS011;65174;48.138;21.002;2023-04-19T18:40:25;1.85;;;1.33;;